Time,TemperatureF,DewpointF,PressureIn,WindDirection,WindDirectionDegrees,WindSpeedMPH,WindSpeedGustMPH,Humidity,HourlyPrecipIn,Conditions,Clouds,dailyrainin,SoftwareType,DateUTC
2013-03-27 00:00:00,30.8,26.0,30.04,NNW,342,3.0,3.0,82,0.00,,,0.13,Wunderground v.1.15,2013-03-27 04:00:00,
2013-03-27 00:10:00,30.8,25.7,30.04,NNW,337,3.0,3.0,81,0.00,,,0.00,Wunderground v.1.15,2013-03-27 04:10:00,
2013-03-27 00:20:00,30.9,25.8,30.05,NW,317,3.0,3.0,81,0.00,,,0.00,Wunderground v.1.15,2013-03-27 04:20:00,
2013-03-27 00:30:00,30.9,25.8,30.05,SSE,161,1.0,1.0,81,0.00,,,0.00,Wunderground v.1.15,2013-03-27 04:30:00,
2013-03-27 00:40:00,30.9,26.1,30.05,North,360,1.0,1.0,82,0.00,,,0.00,Wunderground v.1.15,2013-03-27 04:40:00,
2013-03-27 00:50:00,30.8,26.5,30.05,NNW,348,2.0,2.0,84,0.00,,,0.00,Wunderground v.1.15,2013-03-27 04:50:00,
2013-03-27 01:00:00,30.6,26.3,30.05,WNW,286,3.0,7.0,84,0.00,,,0.00,Wunderground v.1.15,2013-03-27 05:00:00,
2013-03-27 01:10:00,30.4,26.1,30.05,ENE,59,2.0,2.0,84,0.00,,,0.00,Wunderground v.1.15,2013-03-27 05:10:00,
2013-03-27 01:20:00,30.4,25.9,30.05,NE,40,1.0,5.0,83,0.00,,,0.00,Wunderground v.1.15,2013-03-27 05:20:00,
2013-03-27 01:30:00,30.4,25.3,30.05,NNW,335,4.0,4.0,81,0.00,,,0.00,Wunderground v.1.15,2013-03-27 05:30:00,
2013-03-27 01:40:00,30.4,25.3,30.05,NW,305,1.0,4.0,81,0.00,,,0.00,Wunderground v.1.15,2013-03-27 05:40:00,
2013-03-27 01:50:00,30.3,24.9,30.05,WNW,300,2.0,2.0,80,0.00,,,0.00,Wunderground v.1.15,2013-03-27 05:50:00,
2013-03-27 02:00:00,30.2,24.8,30.05,WSW,243,1.0,1.0,80,0.00,,,0.00,Wunderground v.1.15,2013-03-27 06:00:00,
2013-03-27 02:10:00,30.1,24.7,30.05,WNW,295,3.0,3.0,80,0.00,,,0.00,Wunderground v.1.15,2013-03-27 06:10:00,
2013-03-27 02:20:00,29.8,24.4,30.05,North,5,4.0,4.0,80,0.00,,,0.00,Wunderground v.1.15,2013-03-27 06:20:00,
2013-03-27 02:30:00,29.7,24.3,30.05,East,83,3.0,3.0,80,0.00,,,0.00,Wunderground v.1.15,2013-03-27 06:30:00,
2013-03-27 02:40:00,29.6,24.2,30.05,North,5,1.0,1.0,80,0.00,,,0.00,Wunderground v.1.15,2013-03-27 06:40:00,
2013-03-27 02:50:00,29.5,23.8,30.04,NW,312,1.0,4.0,79,0.00,,,0.00,Wunderground v.1.15,2013-03-27 06:50:00,
2013-03-27 03:00:00,29.4,23.4,30.05,NNW,327,3.0,3.0,78,0.00,,,0.00,Wunderground v.1.15,2013-03-27 07:00:00,
2013-03-27 03:10:00,29.6,23.6,30.04,NNW,339,3.0,3.0,78,0.00,,,0.00,Wunderground v.1.15,2013-03-27 07:10:00,
2013-03-27 03:20:00,29.7,23.7,30.04,NNW,347,3.0,5.0,78,0.00,,,0.00,Wunderground v.1.15,2013-03-27 07:20:00,
2013-03-27 03:30:00,29.7,23.7,30.04,NW,314,3.0,3.0,78,0.00,,,0.00,Wunderground v.1.15,2013-03-27 07:30:00,
2013-03-27 03:40:00,29.6,23.9,30.04,NNW,331,2.0,7.0,79,0.00,,,0.00,Wunderground v.1.15,2013-03-27 07:40:00,
2013-03-27 03:50:00,29.5,23.8,30.04,NW,310,3.0,7.0,79,0.00,,,0.00,Wunderground v.1.15,2013-03-27 07:50:00,
2013-03-27 04:00:00,29.4,23.7,30.04,NNW,336,3.0,4.0,79,0.00,,,0.00,Wunderground v.1.15,2013-03-27 08:00:00,
2013-03-27 04:10:00,29.3,23.6,30.04,NW,323,4.0,4.0,79,0.00,,,0.00,Wunderground v.1.15,2013-03-27 08:10:00,
2013-03-27 04:20:00,29.2,23.8,30.04,WNW,290,2.0,4.0,80,0.00,,,0.00,Wunderground v.1.15,2013-03-27 08:20:00,
2013-03-27 04:30:00,28.9,23.8,30.04,NW,304,2.0,2.0,81,0.00,,,0.00,Wunderground v.1.15,2013-03-27 08:30:00,
2013-03-27 04:40:00,28.8,24.0,30.04,NNW,344,4.0,4.0,82,0.00,,,0.00,Wunderground v.1.15,2013-03-27 08:40:00,
2013-03-27 04:50:00,28.7,23.9,30.04,WNW,288,2.0,5.0,82,0.00,,,0.00,Wunderground v.1.15,2013-03-27 08:50:00,
2013-03-27 05:00:00,28.6,23.5,30.04,NNW,329,5.0,6.0,81,0.00,,,0.00,Wunderground v.1.15,2013-03-27 09:00:00,
2013-03-27 05:10:00,28.7,23.3,30.04,WNW,300,3.0,3.0,80,0.00,,,0.00,Wunderground v.1.15,2013-03-27 09:10:00,
2013-03-27 05:20:00,28.7,23.0,30.04,WNW,298,2.0,4.0,79,0.00,,,0.00,Wunderground v.1.15,2013-03-27 09:20:00,
2013-03-27 05:30:00,28.6,22.6,30.04,NW,311,3.0,3.0,78,0.00,,,0.00,Wunderground v.1.15,2013-03-27 09:30:00,
2013-03-27 05:40:00,28.6,22.9,30.05,NW,311,4.0,4.0,79,0.00,,,0.00,Wunderground v.1.15,2013-03-27 09:40:00,
2013-03-27 05:50:00,28.5,23.4,30.04,West,271,4.0,5.0,81,0.00,,,0.00,Wunderground v.1.15,2013-03-27 09:50:00,
2013-03-27 06:00:00,28.2,23.4,30.05,NW,322,5.0,7.0,82,0.00,,,0.00,Wunderground v.1.15,2013-03-27 10:00:00,
2013-03-27 06:10:00,27.9,23.7,30.05,NNW,333,5.0,6.0,84,0.00,,,0.00,Wunderground v.1.15,2013-03-27 10:10:00,
2013-03-27 06:20:00,27.7,23.8,30.06,North,350,4.0,5.0,85,0.00,,,0.00,Wunderground v.1.15,2013-03-27 10:20:00,
2013-03-27 06:30:00,27.6,23.4,30.05,West,277,5.0,12.0,84,0.00,,,0.00,Wunderground v.1.15,2013-03-27 10:30:00,
2013-03-27 06:40:00,27.6,22.8,30.06,NW,315,4.0,4.0,82,0.00,,,0.00,Wunderground v.1.15,2013-03-27 10:40:00,
2013-03-27 06:50:00,27.8,22.4,30.06,North,360,6.0,6.0,80,0.00,,,0.00,Wunderground v.1.15,2013-03-27 10:50:00,
2013-03-27 07:00:00,27.9,22.5,30.06,WNW,294,4.0,11.0,80,0.00,,,0.00,Wunderground v.1.15,2013-03-27 11:00:00,
2013-03-27 07:10:00,27.9,22.8,30.07,NW,325,5.0,7.0,81,0.00,,,0.00,Wunderground v.1.15,2013-03-27 11:10:00,
2013-03-27 07:20:00,27.9,22.8,30.08,NNW,327,6.0,7.0,81,0.00,,,0.00,Wunderground v.1.15,2013-03-27 11:20:00,
2013-03-27 07:30:00,27.9,22.8,30.08,NW,319,5.0,5.0,81,0.00,,,0.00,Wunderground v.1.15,2013-03-27 11:30:00,
2013-03-27 07:40:00,27.9,22.8,30.08,NW,307,5.0,6.0,81,0.00,,,0.00,Wunderground v.1.15,2013-03-27 11:40:00,
2013-03-27 07:50:00,27.9,22.8,30.08,WNW,299,6.0,6.0,81,0.00,,,0.00,Wunderground v.1.15,2013-03-27 11:50:00,
2013-03-27 08:00:00,28.0,22.9,30.08,West,263,6.0,6.0,81,0.00,,,0.00,Wunderground v.1.15,2013-03-27 12:00:00,
2013-03-27 08:10:00,28.1,22.7,30.08,WNW,303,6.0,6.0,80,0.00,,,0.00,Wunderground v.1.15,2013-03-27 12:10:00,
2013-03-27 08:20:00,28.3,22.6,30.08,NW,315,5.0,5.0,79,0.00,,,0.00,Wunderground v.1.15,2013-03-27 12:20:00,
2013-03-27 08:30:00,28.5,22.5,30.09,NW,312,6.0,8.0,78,0.00,,,0.00,Wunderground v.1.15,2013-03-27 12:30:00,
2013-03-27 08:40:00,28.7,22.4,30.09,NNW,332,7.0,7.0,77,0.00,,,0.00,Wunderground v.1.15,2013-03-27 12:40:00,
2013-03-27 08:50:00,28.8,22.2,30.09,NW,315,7.0,7.0,76,0.00,,,0.00,Wunderground v.1.15,2013-03-27 12:50:00,
2013-03-27 09:00:00,29.1,22.5,30.10,NW,313,7.0,7.0,76,0.00,,,0.00,Wunderground v.1.15,2013-03-27 13:00:00,
2013-03-27 09:10:00,29.4,22.8,30.10,NW,321,6.0,6.0,76,0.00,,,0.00,Wunderground v.1.15,2013-03-27 13:10:00,
2013-03-27 09:20:00,29.4,22.8,30.11,NNW,342,6.0,7.0,76,0.00,,,0.00,Wunderground v.1.15,2013-03-27 13:20:00,
2013-03-27 09:30:00,29.4,22.8,30.11,NNW,339,5.0,8.0,76,0.00,,,0.00,Wunderground v.1.15,2013-03-27 13:30:00,
2013-03-27 09:40:00,29.4,22.5,30.11,NNW,333,7.0,7.0,75,0.00,,,0.00,Wunderground v.1.15,2013-03-27 13:40:00,
2013-03-27 09:50:00,29.6,22.6,30.11,WNW,282,6.0,6.0,75,0.00,,,0.00,Wunderground v.1.15,2013-03-27 13:50:00,
2013-03-27 10:00:00,30.0,22.7,30.10,NNW,332,6.0,6.0,74,0.00,,,0.00,Wunderground v.1.15,2013-03-27 14:00:00,
2013-03-27 10:10:00,30.3,23.0,30.10,WNW,286,5.0,7.0,74,0.00,,,0.00,Wunderground v.1.15,2013-03-27 14:10:00,
2013-03-27 10:20:00,30.1,22.8,30.11,WNW,285,6.0,12.0,74,0.00,,,0.00,Wunderground v.1.15,2013-03-27 14:20:00,
2013-03-27 10:30:00,30.2,22.9,30.10,West,267,6.0,6.0,74,0.00,,,0.00,Wunderground v.1.15,2013-03-27 14:30:00,
2013-03-27 10:40:00,30.8,23.2,30.11,NW,326,4.0,4.0,73,0.00,,,0.00,Wunderground v.1.15,2013-03-27 14:40:00,
2013-03-27 10:50:00,30.6,22.6,30.12,NNW,329,4.0,4.0,72,0.00,,,0.00,Wunderground v.1.15,2013-03-27 14:50:00,
2013-03-27 11:00:00,30.6,22.6,30.12,North,350,4.0,6.0,72,0.00,,,0.00,Wunderground v.1.15,2013-03-27 15:00:00,
2013-03-27 11:10:00,30.5,22.5,30.13,WNW,291,6.0,6.0,72,0.00,,,0.00,Wunderground v.1.15,2013-03-27 15:10:00,
2013-03-27 11:20:00,30.4,23.7,30.13,North,355,5.0,6.0,76,0.00,,,0.00,Wunderground v.1.15,2013-03-27 15:20:00,
2013-03-27 11:30:00,30.3,23.6,30.13,NW,323,5.0,5.0,76,0.00,,,0.00,Wunderground v.1.15,2013-03-27 15:30:00,
2013-03-27 11:40:00,30.7,24.0,30.13,WNW,292,5.0,5.0,76,0.00,,,0.00,Wunderground v.1.15,2013-03-27 15:40:00,
2013-03-27 11:50:00,31.1,24.4,30.13,North,355,4.0,6.0,76,0.00,,,0.00,Wunderground v.1.15,2013-03-27 15:50:00,
2013-03-27 12:00:00,31.0,24.3,30.13,NNW,348,5.0,5.0,76,0.00,,,0.00,Wunderground v.1.15,2013-03-27 16:00:00,
2013-03-27 12:10:00,30.9,24.8,30.14,NW,308,5.0,5.0,78,0.00,,,0.01,Wunderground v.1.15,2013-03-27 16:10:00,
2013-03-27 12:20:00,31.2,25.4,30.14,NW,307,5.0,5.0,79,0.00,,,0.01,Wunderground v.1.15,2013-03-27 16:20:00,
2013-03-27 12:30:00,31.9,25.8,30.14,NNW,335,5.0,5.0,78,0.00,,,0.01,Wunderground v.1.15,2013-03-27 16:30:00,
2013-03-27 12:40:00,32.0,25.9,30.14,North,355,4.0,7.0,78,0.00,,,0.01,Wunderground v.1.15,2013-03-27 16:40:00,
2013-03-27 12:50:00,31.9,25.5,30.14,NNW,327,6.0,6.0,77,0.00,,,0.01,Wunderground v.1.15,2013-03-27 16:50:00,
2013-03-27 13:00:00,31.9,25.8,30.14,WNW,296,5.0,5.0,78,0.00,,,0.01,Wunderground v.1.15,2013-03-27 17:00:00,
2013-03-27 13:10:00,33.8,26.4,30.14,SE,136,5.0,6.0,74,0.00,,,0.01,Wunderground v.1.15,2013-03-27 17:10:00,
2013-03-27 13:20:00,33.4,26.0,30.15,NW,311,5.0,8.0,74,0.00,,,0.01,Wunderground v.1.15,2013-03-27 17:20:00,
2013-03-27 13:30:00,32.5,25.8,30.14,NW,307,5.0,6.0,76,0.00,,,0.01,Wunderground v.1.15,2013-03-27 17:30:00,
2013-03-27 13:40:00,32.4,26.0,30.15,NNW,340,4.0,4.0,77,0.00,,,0.01,Wunderground v.1.15,2013-03-27 17:40:00,
2013-03-27 13:50:00,32.9,26.5,30.14,WNW,296,4.0,8.0,77,0.00,,,0.01,Wunderground v.1.15,2013-03-27 17:50:00,
2013-03-27 14:00:00,34.1,26.0,30.14,NNW,327,4.0,4.0,72,0.00,,,0.01,Wunderground v.1.15,2013-03-27 18:00:00,
2013-03-27 14:10:00,34.8,25.7,30.14,NNW,344,5.0,5.0,69,0.00,,,0.01,Wunderground v.1.15,2013-03-27 18:10:00,
2013-03-27 14:20:00,35.2,25.7,30.14,SSW,192,4.0,4.0,68,0.00,,,0.02,Wunderground v.1.15,2013-03-27 18:20:00,
2013-03-27 14:30:00,34.4,24.2,30.14,NW,312,7.0,7.0,66,0.00,,,0.02,Wunderground v.1.15,2013-03-27 18:30:00,
2013-03-27 14:40:00,34.8,25.3,30.14,NNW,337,3.0,6.0,68,0.00,,,0.02,Wunderground v.1.15,2013-03-27 18:40:00,
2013-03-27 14:50:00,35.5,25.3,30.13,WNW,302,4.0,5.0,66,0.00,,,0.02,Wunderground v.1.15,2013-03-27 18:50:00,
2013-03-27 15:00:00,36.6,26.3,30.12,WNW,301,3.0,4.0,66,0.00,,,0.02,Wunderground v.1.15,2013-03-27 19:00:00,
2013-03-27 15:10:00,36.0,25.0,30.12,WNW,284,3.0,3.0,64,0.00,,,0.02,Wunderground v.1.15,2013-03-27 19:10:00,
2013-03-27 15:20:00,36.2,24.8,30.12,North,360,3.0,4.0,63,0.00,,,0.03,Wunderground v.1.15,2013-03-27 19:20:00,
2013-03-27 15:30:00,35.8,24.0,30.11,West,262,5.0,6.0,62,0.00,,,0.03,Wunderground v.1.15,2013-03-27 19:30:00,
2013-03-27 15:40:00,35.0,24.4,30.12,West,275,6.0,6.0,65,0.00,,,0.03,Wunderground v.1.15,2013-03-27 19:40:00,
2013-03-27 15:50:00,35.8,26.3,30.11,NNW,338,5.0,5.0,68,0.00,,,0.03,Wunderground v.1.15,2013-03-27 19:50:00,
2013-03-27 16:00:00,37.9,26.4,30.10,NNW,329,3.0,4.0,63,0.00,,,0.03,Wunderground v.1.15,2013-03-27 20:00:00,
2013-03-27 16:10:00,37.4,25.6,30.10,NW,325,2.0,5.0,62,0.00,,,0.03,Wunderground v.1.15,2013-03-27 20:10:00,
2013-03-27 16:20:00,36.7,24.9,30.10,NE,56,2.0,2.0,62,0.00,,,0.04,Wunderground v.1.15,2013-03-27 20:20:00,
2013-03-27 16:30:00,36.0,25.0,30.10,NW,304,2.0,2.0,64,0.00,,,0.04,Wunderground v.1.15,2013-03-27 20:30:00,
2013-03-27 16:40:00,35.6,25.4,30.10,North,5,1.0,2.0,66,0.00,,,0.04,Wunderground v.1.15,2013-03-27 20:40:00,
2013-03-27 16:50:00,35.2,24.6,30.10,NNW,345,2.0,2.0,65,0.00,,,0.04,Wunderground v.1.15,2013-03-27 20:50:00,
2013-03-27 17:00:00,35.0,25.1,30.10,NNW,345,2.0,2.0,67,0.00,,,0.04,Wunderground v.1.15,2013-03-27 21:00:00,
2013-03-27 17:10:00,35.4,25.9,30.10,West,273,4.0,5.0,68,0.00,,,0.04,Wunderground v.1.15,2013-03-27 21:10:00,
2013-03-27 17:20:00,35.3,25.4,30.10,SSW,195,5.0,5.0,67,0.00,,,0.04,Wunderground v.1.15,2013-03-27 21:20:00,
2013-03-27 17:30:00,35.2,25.7,30.10,NNW,331,4.0,5.0,68,0.00,,,0.04,Wunderground v.1.15,2013-03-27 21:30:00,
2013-03-27 17:40:00,35.5,26.0,30.11,West,261,3.0,6.0,68,0.00,,,0.04,Wunderground v.1.15,2013-03-27 21:40:00,
2013-03-27 17:50:00,35.4,26.2,30.11,NW,321,6.0,7.0,69,0.00,,,0.04,Wunderground v.1.15,2013-03-27 21:50:00,
2013-03-27 18:00:00,34.6,26.5,30.11,NW,311,6.0,6.0,72,0.00,,,0.04,Wunderground v.1.15,2013-03-27 22:00:00,
2013-03-27 18:10:00,34.4,27.0,30.11,NNW,340,6.0,6.0,74,0.00,,,0.04,Wunderground v.1.15,2013-03-27 22:10:00,
2013-03-27 18:20:00,34.4,27.0,30.11,West,279,4.0,12.0,74,0.00,,,0.04,Wunderground v.1.15,2013-03-27 22:20:00,
2013-03-27 18:30:00,34.6,26.2,30.11,NNE,18,6.0,6.0,71,0.00,,,0.04,Wunderground v.1.15,2013-03-27 22:30:00,
2013-03-27 18:40:00,34.4,26.0,30.11,North,9,5.0,5.0,71,0.00,,,0.04,Wunderground v.1.15,2013-03-27 22:40:00,
2013-03-27 18:50:00,34.2,25.1,30.11,ESE,103,6.0,6.0,69,0.00,,,0.04,Wunderground v.1.15,2013-03-27 22:50:00,
2013-03-27 19:00:00,34.1,25.3,30.11,NNW,344,3.0,6.0,70,0.00,,,0.04,Wunderground v.1.15,2013-03-27 23:00:00,
2013-03-27 19:10:00,34.0,25.9,30.12,NW,313,5.0,5.0,72,0.00,,,0.04,Wunderground v.1.15,2013-03-27 23:10:00,
2013-03-27 19:20:00,33.8,26.7,30.12,NNW,340,4.0,9.0,75,0.00,,,0.04,Wunderground v.1.15,2013-03-27 23:20:00,
2013-03-27 19:30:00,33.3,26.9,30.13,NNE,21,5.0,5.0,77,0.00,,,0.04,Wunderground v.1.15,2013-03-27 23:30:00,
2013-03-27 19:40:00,32.9,26.5,30.13,NW,310,3.0,8.0,77,0.00,,,0.04,Wunderground v.1.15,2013-03-27 23:40:00,
2013-03-27 19:50:00,32.8,25.7,30.13,NW,312,6.0,6.0,75,0.00,,,0.04,Wunderground v.1.15,2013-03-27 23:50:00,
2013-03-27 20:00:00,32.8,25.4,30.13,NE,38,4.0,6.0,74,0.00,,,0.04,Wunderground v.1.15,2013-03-28 00:00:00,
2013-03-27 20:10:00,32.8,25.1,30.13,North,5,5.0,5.0,73,0.00,,,0.04,Wunderground v.1.15,2013-03-28 00:10:00,
2013-03-27 20:20:00,32.9,25.2,30.13,NNW,344,4.0,4.0,73,0.00,,,0.04,Wunderground v.1.15,2013-03-28 00:20:00,
2013-03-27 20:30:00,32.9,25.5,30.13,NNW,330,4.0,5.0,74,0.00,,,0.04,Wunderground v.1.15,2013-03-28 00:30:00,
2013-03-27 20:40:00,32.8,26.1,30.13,NW,306,3.0,3.0,76,0.00,,,0.04,Wunderground v.1.15,2013-03-28 00:40:00,
2013-03-27 20:50:00,32.6,26.5,30.14,WNW,294,2.0,5.0,78,0.00,,,0.04,Wunderground v.1.15,2013-03-28 00:50:00,
2013-03-27 21:00:00,32.3,26.8,30.13,WSW,250,3.0,3.0,80,0.00,,,0.04,Wunderground v.1.15,2013-03-28 01:00:00,
2013-03-27 21:10:00,32.1,26.6,30.14,WNW,296,4.0,4.0,80,0.00,,,0.04,Wunderground v.1.15,2013-03-28 01:10:00,
2013-03-27 21:20:00,32.0,26.2,30.14,NW,312,3.0,3.0,79,0.00,,,0.04,Wunderground v.1.15,2013-03-28 01:20:00,
2013-03-27 21:30:00,32.0,26.5,30.14,West,267,4.0,4.0,80,0.00,,,0.04,Wunderground v.1.15,2013-03-28 01:30:00,
2013-03-27 21:40:00,32.0,26.8,30.15,NNE,14,2.0,2.0,81,0.00,,,0.04,Wunderground v.1.15,2013-03-28 01:40:00,
2013-03-27 21:50:00,31.8,26.9,30.14,WNW,291,2.0,2.0,82,0.00,,,0.04,Wunderground v.1.15,2013-03-28 01:50:00,
2013-03-27 22:00:00,31.7,26.8,30.14,WNW,302,2.0,5.0,82,0.00,,,0.04,Wunderground v.1.15,2013-03-28 02:00:00,
2013-03-27 22:10:00,31.6,26.4,30.15,WSW,242,3.0,4.0,81,0.00,,,0.04,Wunderground v.1.15,2013-03-28 02:10:00,
2013-03-27 22:20:00,31.7,26.2,30.15,West,273,3.0,3.0,80,0.00,,,0.04,Wunderground v.1.15,2013-03-28 02:20:00,
2013-03-27 22:30:00,31.7,26.2,30.15,NNW,338,4.0,4.0,80,0.00,,,0.04,Wunderground v.1.15,2013-03-28 02:30:00,
2013-03-27 22:40:00,31.7,26.2,30.15,NW,317,3.0,3.0,80,0.00,,,0.04,Wunderground v.1.15,2013-03-28 02:40:00,
2013-03-27 22:50:00,31.6,25.8,30.15,NNW,331,3.0,3.0,79,0.00,,,0.04,Wunderground v.1.15,2013-03-28 02:50:00,
2013-03-27 23:00:00,31.6,25.5,30.15,North,355,3.0,10.0,78,0.00,,,0.04,Wunderground v.1.15,2013-03-28 03:00:00,
2013-03-27 23:10:00,31.7,25.6,30.15,NNW,348,4.0,4.0,78,0.00,,,0.04,Wunderground v.1.15,2013-03-28 03:10:00,
2013-03-27 23:20:00,31.7,25.6,30.15,North,355,3.0,4.0,78,0.00,,,0.04,Wunderground v.1.15,2013-03-28 03:20:00,
2013-03-27 23:30:00,31.7,25.6,30.15,WSW,245,4.0,4.0,78,0.00,,,0.04,Wunderground v.1.15,2013-03-28 03:30:00,
2013-03-27 23:40:00,31.6,25.2,30.15,NW,325,2.0,2.0,77,0.00,,,0.04,Wunderground v.1.15,2013-03-28 03:40:00,
2013-03-27 23:50:00,31.7,25.6,30.14,NNW,327,2.0,2.0,78,0.00,,,0.04,Wunderground v.1.15,2013-03-28 03:50:00,